Huvudsida
METAR-TAF:

METAR-TAF

Flygplatser :

Tingo María, Peru

latitud: 09-17-15S, longitud: 076-00-18W, höjd: 654 m

Aktuellt väderrapport

Denna rapport gjordes för 1 timme och 2 minuter sedan, klockan 22:00 UTC
Vind 3 kt från nord
Temperatur 25°C
Fuktighet 83%
Tryck 1011 hPa
Sikt 10 km eller mer
Få moln på en höjd av 3000 ft
Brutna moln på en höjd av 9000 ft

METAR: SPGM 052200Z 36003KT 9999 FEW030 BKN090 25/22 Q1011 RMK PP000

Tid: 18:02 (23:02 UTC)

Väderprognos

Denna rapport gjordes för 6 timmar och 48 minuter sedan, klockan 16:14 UTC
Prognos gäller från 05 kl. 18 UTC till 06 kl. 18 UTC
Vind 3 kt från nord
Sikt 10 km eller mer
Spridda moln på en höjd av 2500 ft
Brutna moln på en höjd av 8000 ft
Temporärt
från 05 kl. 18 UTC till 05 kl. 21 UTC
Sikt: 8000 m
Brutna moln på en höjd av 2500 ft
Mulet på en höjd av 8000 ft
regn

TAF: SPGM 051614Z 0518/0618 36003KT 9999 SCT025 BKN080 TX29/0519Z TN20/0611Z TEMPO 0518/0521 8000 RA BKN025 OVC080

Aktuella väderrapporter och prognoser från 4000 flygplatser (METAR- och TAF-rapporter).

De tillgängliga stationerna syns som gula och röda prickar på kartan.

För musen över prickarna för att se namnen på stationerna.

Klicka sedan för att få väderrapporter och prognoser.

För att ändra kartan: Klicka på de gröna knapparna med ett svart kors på för att zooma in; den gröna knappen med ett streck på för att zooma ut; eller på de gröna pilarna för angränsande kartor.


METAR-TAF: